sensor_id;sensor_type;location;lat;lon;timestamp;P1;durP1;ratioP1;P2;durP2;ratioP2
56255;SDS011;57229;51.432;-2.598;2022-08-04T00:03:18;9.73;;;2.15;;
56255;SDS011;57229;51.432;-2.598;2022-08-04T00:11:47;10.02;;;2.17;;
56255;SDS011;57229;51.432;-2.598;2022-08-04T00:14:29;6.55;;;1.85;;
56255;SDS011;57229;51.432;-2.598;2022-08-04T00:17:14;14.35;;;2.10;;
56255;SDS011;57229;51.432;-2.598;2022-08-04T00:20:36;11.30;;;2.13;;
56255;SDS011;57229;51.432;-2.598;2022-08-04T00:23:17;9.75;;;2.35;;
56255;SDS011;57229;51.432;-2.598;2022-08-04T00:25:54;13.13;;;2.20;;
56255;SDS011;57229;51.432;-2.598;2022-08-04T00:28:42;12.38;;;1.98;;
56255;SDS011;57229;51.432;-2.598;2022-08-04T00:31:19;7.63;;;2.08;;
56255;SDS011;57229;51.432;-2.598;2022-08-04T00:34:00;9.68;;;2.22;;
56255;SDS011;57229;51.432;-2.598;2022-08-04T00:36:27;9.88;;;2.00;;
56255;SDS011;57229;51.432;-2.598;2022-08-04T00:38:54;8.80;;;2.03;;
56255;SDS011;57229;51.432;-2.598;2022-08-04T00:41:57;10.18;;;2.03;;
56255;SDS011;57229;51.432;-2.598;2022-08-04T00:46:50;8.63;;;1.90;;
56255;SDS011;57229;51.432;-2.598;2022-08-04T01:03:30;14.48;;;2.25;;
56255;SDS011;57229;51.432;-2.598;2022-08-04T01:06:11;13.85;;;2.10;;
56255;SDS011;57229;51.432;-2.598;2022-08-04T01:09:02;8.52;;;2.00;;
56255;SDS011;57229;51.432;-2.598;2022-08-04T01:17:24;6.78;;;2.00;;
56255;SDS011;57229;51.432;-2.598;2022-08-04T01:20:08;9.63;;;2.50;;
56255;SDS011;57229;51.432;-2.598;2022-08-04T01:30:44;12.60;;;2.40;;
56255;SDS011;57229;51.432;-2.598;2022-08-04T01:33:12;10.88;;;2.47;;
56255;SDS011;57229;51.432;-2.598;2022-08-04T01:40:40;10.55;;;2.30;;
56255;SDS011;57229;51.432;-2.598;2022-08-04T01:43:06;8.85;;;2.17;;
56255;SDS011;57229;51.432;-2.598;2022-08-04T01:45:35;8.98;;;2.25;;
56255;SDS011;57229;51.432;-2.598;2022-08-04T01:48:02;7.78;;;2.47;;
56255;SDS011;57229;51.432;-2.598;2022-08-04T01:50:30;12.18;;;2.60;;
56255;SDS011;57229;51.432;-2.598;2022-08-04T01:53:01;7.15;;;2.15;;
56255;SDS011;57229;51.432;-2.598;2022-08-04T01:55:28;14.95;;;2.47;;
56255;SDS011;57229;51.432;-2.598;2022-08-04T01:57:56;7.30;;;2.30;;
56255;SDS011;57229;51.432;-2.598;2022-08-04T02:00:25;12.77;;;2.47;;
56255;SDS011;57229;51.432;-2.598;2022-08-04T02:02:52;11.35;;;2.55;;
56255;SDS011;57229;51.432;-2.598;2022-08-04T02:05:22;10.95;;;3.38;;
56255;SDS011;57229;51.432;-2.598;2022-08-04T02:07:55;10.82;;;2.67;;
56255;SDS011;57229;51.432;-2.598;2022-08-04T02:13:55;11.38;;;3.25;;
56255;SDS011;57229;51.432;-2.598;2022-08-04T02:16:31;10.77;;;2.78;;
56255;SDS011;57229;51.432;-2.598;2022-08-04T02:21:50;17.67;;;3.30;;
56255;SDS011;57229;51.432;-2.598;2022-08-04T02:24:23;9.13;;;3.08;;
56255;SDS011;57229;51.432;-2.598;2022-08-04T02:26:53;7.10;;;2.60;;
56255;SDS011;57229;51.432;-2.598;2022-08-04T02:29:34;16.63;;;3.15;;
56255;SDS011;57229;51.432;-2.598;2022-08-04T02:32:19;11.13;;;2.63;;
56255;SDS011;57229;51.432;-2.598;2022-08-04T02:34:57;6.95;;;2.70;;
56255;SDS011;57229;51.432;-2.598;2022-08-04T02:37:30;13.55;;;2.70;;
56255;SDS011;57229;51.432;-2.598;2022-08-04T02:39:58;8.55;;;2.78;;
56255;SDS011;57229;51.432;-2.598;2022-08-04T02:42:25;11.90;;;3.10;;
56255;SDS011;57229;51.432;-2.598;2022-08-04T02:44:53;14.30;;;3.20;;
56255;SDS011;57229;51.432;-2.598;2022-08-04T02:47:24;16.58;;;3.40;;
56255;SDS011;57229;51.432;-2.598;2022-08-04T02:49:52;15.98;;;3.55;;
56255;SDS011;57229;51.432;-2.598;2022-08-04T02:52:20;13.63;;;3.30;;
56255;SDS011;57229;51.432;-2.598;2022-08-04T02:54:50;9.65;;;3.25;;
56255;SDS011;57229;51.432;-2.598;2022-08-04T02:57:25;13.50;;;3.00;;
56255;SDS011;57229;51.432;-2.598;2022-08-04T03:05:38;14.93;;;3.35;;
56255;SDS011;57229;51.432;-2.598;2022-08-04T03:08:27;7.18;;;3.13;;
56255;SDS011;57229;51.432;-2.598;2022-08-04T03:25:22;10.77;;;3.25;;
56255;SDS011;57229;51.432;-2.598;2022-08-04T03:50:43;9.25;;;2.90;;
56255;SDS011;57229;51.432;-2.598;2022-08-04T03:53:32;11.98;;;3.08;;
56255;SDS011;57229;51.432;-2.598;2022-08-04T03:56:21;10.50;;;3.00;;
56255;SDS011;57229;51.432;-2.598;2022-08-04T04:15:05;18.17;;;3.80;;
56255;SDS011;57229;51.432;-2.598;2022-08-04T04:26:45;10.27;;;3.42;;
56255;SDS011;57229;51.432;-2.598;2022-08-04T04:32:15;12.73;;;3.00;;
56255;SDS011;57229;51.432;-2.598;2022-08-04T04:37:24;11.82;;;2.90;;
56255;SDS011;57229;51.432;-2.598;2022-08-04T04:40:05;11.85;;;3.00;;
56255;SDS011;57229;51.432;-2.598;2022-08-04T04:42:57;7.88;;;2.72;;
56255;SDS011;57229;51.432;-2.598;2022-08-04T04:53:56;9.25;;;2.95;;
56255;SDS011;57229;51.432;-2.598;2022-08-04T04:56:38;14.10;;;2.70;;
56255;SDS011;57229;51.432;-2.598;2022-08-04T04:59:15;7.63;;;3.03;;
56255;SDS011;57229;51.432;-2.598;2022-08-04T05:12:45;10.50;;;2.90;;
56255;SDS011;57229;51.432;-2.598;2022-08-04T05:15:16;9.35;;;3.20;;
56255;SDS011;57229;51.432;-2.598;2022-08-04T05:17:48;13.57;;;3.22;;
56255;SDS011;57229;51.432;-2.598;2022-08-04T05:20:24;15.52;;;2.80;;
56255;SDS011;57229;51.432;-2.598;2022-08-04T05:23:00;14.52;;;3.60;;
56255;SDS011;57229;51.432;-2.598;2022-08-04T05:25:34;8.73;;;2.53;;
56255;SDS011;57229;51.432;-2.598;2022-08-04T05:28:11;12.65;;;3.00;;
56255;SDS011;57229;51.432;-2.598;2022-08-04T05:30:41;7.97;;;2.70;;
56255;SDS011;57229;51.432;-2.598;2022-08-04T05:33:13;14.80;;;3.00;;
56255;SDS011;57229;51.432;-2.598;2022-08-04T05:36:02;11.65;;;2.70;;
56255;SDS011;57229;51.432;-2.598;2022-08-04T05:38:33;11.02;;;2.72;;
56255;SDS011;57229;51.432;-2.598;2022-08-04T05:41:01;9.43;;;2.78;;
56255;SDS011;57229;51.432;-2.598;2022-08-04T05:43:28;9.43;;;2.70;;
56255;SDS011;57229;51.432;-2.598;2022-08-04T05:45:55;11.35;;;2.90;;
56255;SDS011;57229;51.432;-2.598;2022-08-04T05:48:21;6.47;;;2.47;;
56255;SDS011;57229;51.432;-2.598;2022-08-04T05:50:49;10.95;;;3.75;;
56255;SDS011;57229;51.432;-2.598;2022-08-04T05:53:15;15.05;;;3.40;;
56255;SDS011;57229;51.432;-2.598;2022-08-04T05:55:43;8.77;;;2.83;;
56255;SDS011;57229;51.432;-2.598;2022-08-04T05:58:10;14.85;;;3.70;;
56255;SDS011;57229;51.432;-2.598;2022-08-04T06:00:37;10.85;;;3.35;;
56255;SDS011;57229;51.432;-2.598;2022-08-04T06:03:05;11.88;;;3.15;;
56255;SDS011;57229;51.432;-2.598;2022-08-04T06:05:33;12.73;;;3.45;;
56255;SDS011;57229;51.432;-2.598;2022-08-04T06:08:00;12.02;;;3.45;;
56255;SDS011;57229;51.432;-2.598;2022-08-04T06:10:27;13.32;;;3.38;;
56255;SDS011;57229;51.432;-2.598;2022-08-04T06:12:57;14.77;;;3.80;;
56255;SDS011;57229;51.432;-2.598;2022-08-04T06:15:27;11.32;;;2.92;;
56255;SDS011;57229;51.432;-2.598;2022-08-04T06:17:55;12.13;;;3.50;;
56255;SDS011;57229;51.432;-2.598;2022-08-04T06:20:27;10.63;;;3.40;;
56255;SDS011;57229;51.432;-2.598;2022-08-04T06:22:57;16.75;;;3.58;;
56255;SDS011;57229;51.432;-2.598;2022-08-04T06:25:28;10.00;;;3.10;;
56255;SDS011;57229;51.432;-2.598;2022-08-04T06:28:00;11.93;;;2.95;;
56255;SDS011;57229;51.432;-2.598;2022-08-04T06:30:30;10.60;;;3.25;;
56255;SDS011;57229;51.432;-2.598;2022-08-04T06:32:56;13.80;;;3.63;;
56255;SDS011;57229;51.432;-2.598;2022-08-04T06:35:37;11.13;;;2.75;;
56255;SDS011;57229;51.432;-2.598;2022-08-04T06:38:04;10.73;;;3.00;;
56255;SDS011;57229;51.432;-2.598;2022-08-04T06:40:32;11.25;;;3.17;;
56255;SDS011;57229;51.432;-2.598;2022-08-04T06:43:00;12.18;;;3.30;;
56255;SDS011;57229;51.432;-2.598;2022-08-04T06:45:27;11.25;;;3.28;;
56255;SDS011;57229;51.432;-2.598;2022-08-04T06:47:54;11.75;;;3.10;;
56255;SDS011;57229;51.432;-2.598;2022-08-04T06:50:20;10.73;;;2.83;;
56255;SDS011;57229;51.432;-2.598;2022-08-04T06:52:47;13.30;;;3.00;;
56255;SDS011;57229;51.432;-2.598;2022-08-04T06:55:13;8.15;;;3.13;;
56255;SDS011;57229;51.432;-2.598;2022-08-04T06:57:39;10.02;;;2.90;;
56255;SDS011;57229;51.432;-2.598;2022-08-04T07:00:08;11.00;;;2.78;;
56255;SDS011;57229;51.432;-2.598;2022-08-04T07:02:43;15.00;;;3.25;;
56255;SDS011;57229;51.432;-2.598;2022-08-04T07:05:12;12.73;;;3.75;;
56255;SDS011;57229;51.432;-2.598;2022-08-04T07:07:38;8.02;;;2.70;;
56255;SDS011;57229;51.432;-2.598;2022-08-04T07:10:05;11.07;;;3.30;;
56255;SDS011;57229;51.432;-2.598;2022-08-04T07:12:32;6.25;;;2.60;;
56255;SDS011;57229;51.432;-2.598;2022-08-04T07:14:58;13.10;;;2.90;;
56255;SDS011;57229;51.432;-2.598;2022-08-04T07:17:25;9.80;;;2.83;;
56255;SDS011;57229;51.432;-2.598;2022-08-04T07:19:54;7.72;;;2.80;;
56255;SDS011;57229;51.432;-2.598;2022-08-04T07:22:20;9.98;;;2.97;;
56255;SDS011;57229;51.432;-2.598;2022-08-04T07:24:46;8.57;;;2.33;;
56255;SDS011;57229;51.432;-2.598;2022-08-04T07:27:12;7.63;;;2.53;;
56255;SDS011;57229;51.432;-2.598;2022-08-04T07:29:41;6.45;;;2.17;;
56255;SDS011;57229;51.432;-2.598;2022-08-04T07:32:07;5.93;;;2.30;;
56255;SDS011;57229;51.432;-2.598;2022-08-04T07:34:35;5.80;;;1.83;;
56255;SDS011;57229;51.432;-2.598;2022-08-04T07:37:02;7.65;;;2.38;;
56255;SDS011;57229;51.432;-2.598;2022-08-04T07:39:28;6.30;;;2.10;;
56255;SDS011;57229;51.432;-2.598;2022-08-04T07:41:56;6.05;;;1.88;;
56255;SDS011;57229;51.432;-2.598;2022-08-04T07:44:24;6.30;;;2.08;;
56255;SDS011;57229;51.432;-2.598;2022-08-04T07:46:51;5.50;;;1.80;;
56255;SDS011;57229;51.432;-2.598;2022-08-04T07:49:17;5.18;;;1.60;;
56255;SDS011;57229;51.432;-2.598;2022-08-04T07:51:56;4.18;;;1.70;;
56255;SDS011;57229;51.432;-2.598;2022-08-04T07:54:33;4.18;;;1.63;;
56255;SDS011;57229;51.432;-2.598;2022-08-04T07:57:24;3.53;;;1.65;;
56255;SDS011;57229;51.432;-2.598;2022-08-04T07:59:49;4.00;;;1.60;;
56255;SDS011;57229;51.432;-2.598;2022-08-04T08:02:15;3.97;;;1.45;;
56255;SDS011;57229;51.432;-2.598;2022-08-04T08:04:45;6.63;;;1.45;;
56255;SDS011;57229;51.432;-2.598;2022-08-04T08:07:11;5.32;;;1.80;;
56255;SDS011;57229;51.432;-2.598;2022-08-04T08:09:37;4.55;;;1.35;;
56255;SDS011;57229;51.432;-2.598;2022-08-04T08:12:03;2.95;;;1.40;;
56255;SDS011;57229;51.432;-2.598;2022-08-04T08:14:31;3.83;;;1.48;;
56255;SDS011;57229;51.432;-2.598;2022-08-04T08:16:59;3.05;;;1.42;;
56255;SDS011;57229;51.432;-2.598;2022-08-04T08:19:47;5.00;;;1.33;;
56255;SDS011;57229;51.432;-2.598;2022-08-04T08:22:12;3.45;;;1.50;;
56255;SDS011;57229;51.432;-2.598;2022-08-04T08:24:40;5.47;;;1.40;;
56255;SDS011;57229;51.432;-2.598;2022-08-04T08:27:06;5.82;;;1.40;;
56255;SDS011;57229;51.432;-2.598;2022-08-04T08:29:32;3.40;;;1.38;;
56255;SDS011;57229;51.432;-2.598;2022-08-04T08:31:59;4.78;;;1.25;;
56255;SDS011;57229;51.432;-2.598;2022-08-04T08:34:29;6.40;;;1.30;;
56255;SDS011;57229;51.432;-2.598;2022-08-04T08:39:41;5.05;;;1.48;;
56255;SDS011;57229;51.432;-2.598;2022-08-04T08:58:41;3.63;;;1.45;;
56255;SDS011;57229;51.432;-2.598;2022-08-04T09:01:11;5.50;;;1.33;;
56255;SDS011;57229;51.432;-2.598;2022-08-04T09:03:57;5.82;;;1.65;;
56255;SDS011;57229;51.432;-2.598;2022-08-04T09:06:47;4.35;;;1.30;;
56255;SDS011;57229;51.432;-2.598;2022-08-04T09:12:08;4.15;;;1.17;;
56255;SDS011;57229;51.432;-2.598;2022-08-04T09:17:11;4.00;;;1.25;;
56255;SDS011;57229;51.432;-2.598;2022-08-04T09:24:50;2.90;;;0.93;;
56255;SDS011;57229;51.432;-2.598;2022-08-04T09:27:31;2.47;;;1.08;;
56255;SDS011;57229;51.432;-2.598;2022-08-04T09:30:03;2.88;;;1.10;;
56255;SDS011;57229;51.432;-2.598;2022-08-04T09:32:40;1.58;;;0.85;;
56255;SDS011;57229;51.432;-2.598;2022-08-04T09:38:18;1.38;;;0.68;;
56255;SDS011;57229;51.432;-2.598;2022-08-04T09:46:41;3.28;;;1.10;;
56255;SDS011;57229;51.432;-2.598;2022-08-04T09:49:30;4.57;;;0.90;;
56255;SDS011;57229;51.432;-2.598;2022-08-04T09:52:10;1.17;;;0.80;;
56255;SDS011;57229;51.432;-2.598;2022-08-04T09:55:16;2.67;;;0.90;;
56255;SDS011;57229;51.432;-2.598;2022-08-04T09:58:00;4.25;;;1.00;;
56255;SDS011;57229;51.432;-2.598;2022-08-04T10:00:43;2.92;;;0.90;;
56255;SDS011;57229;51.432;-2.598;2022-08-04T10:03:12;4.00;;;0.70;;
56255;SDS011;57229;51.432;-2.598;2022-08-04T10:05:48;2.13;;;1.15;;
56255;SDS011;57229;51.432;-2.598;2022-08-04T10:10:58;3.63;;;0.85;;
56255;SDS011;57229;51.432;-2.598;2022-08-04T10:22:15;1.77;;;0.70;;
56255;SDS011;57229;51.432;-2.598;2022-08-04T10:27:33;2.25;;;0.88;;
56255;SDS011;57229;51.432;-2.598;2022-08-04T10:30:13;7.55;;;1.10;;
56255;SDS011;57229;51.432;-2.598;2022-08-04T10:32:44;6.13;;;1.42;;
56255;SDS011;57229;51.432;-2.598;2022-08-04T10:35:20;2.65;;;1.02;;
56255;SDS011;57229;51.432;-2.598;2022-08-04T10:40:45;3.47;;;0.90;;
56255;SDS011;57229;51.432;-2.598;2022-08-04T10:48:56;3.17;;;0.90;;
56255;SDS011;57229;51.432;-2.598;2022-08-04T10:51:45;2.67;;;0.90;;
56255;SDS011;57229;51.432;-2.598;2022-08-04T10:54:16;5.35;;;1.52;;
56255;SDS011;57229;51.432;-2.598;2022-08-04T10:57:11;4.40;;;0.90;;
56255;SDS011;57229;51.432;-2.598;2022-08-04T10:59:40;2.97;;;0.82;;
56255;SDS011;57229;51.432;-2.598;2022-08-04T11:04:58;3.05;;;0.88;;
56255;SDS011;57229;51.432;-2.598;2022-08-04T11:07:34;3.25;;;0.82;;
56255;SDS011;57229;51.432;-2.598;2022-08-04T11:10:03;3.80;;;1.05;;
56255;SDS011;57229;51.432;-2.598;2022-08-04T11:12:30;4.60;;;0.90;;
56255;SDS011;57229;51.432;-2.598;2022-08-04T11:14:59;3.53;;;1.05;;
56255;SDS011;57229;51.432;-2.598;2022-08-04T11:17:31;4.53;;;0.90;;
56255;SDS011;57229;51.432;-2.598;2022-08-04T11:22:44;5.15;;;1.15;;
56255;SDS011;57229;51.432;-2.598;2022-08-04T11:25:26;4.57;;;1.20;;
56255;SDS011;57229;51.432;-2.598;2022-08-04T11:30:51;3.15;;;0.80;;
56255;SDS011;57229;51.432;-2.598;2022-08-04T11:33:30;3.13;;;1.00;;
56255;SDS011;57229;51.432;-2.598;2022-08-04T11:36:19;1.80;;;0.77;;
56255;SDS011;57229;51.432;-2.598;2022-08-04T11:38:52;2.75;;;1.05;;
56255;SDS011;57229;51.432;-2.598;2022-08-04T11:41:38;5.68;;;1.20;;
56255;SDS011;57229;51.432;-2.598;2022-08-04T11:44:25;3.85;;;1.17;;
56255;SDS011;57229;51.432;-2.598;2022-08-04T11:47:16;3.22;;;0.90;;
56255;SDS011;57229;51.432;-2.598;2022-08-04T11:50:20;5.07;;;1.20;;
56255;SDS011;57229;51.432;-2.598;2022-08-04T11:52:52;5.82;;;0.80;;
56255;SDS011;57229;51.432;-2.598;2022-08-04T11:55:20;5.30;;;1.10;;
56255;SDS011;57229;51.432;-2.598;2022-08-04T11:57:50;5.25;;;1.00;;
56255;SDS011;57229;51.432;-2.598;2022-08-04T12:00:16;5.05;;;1.08;;
56255;SDS011;57229;51.432;-2.598;2022-08-04T12:05:51;3.10;;;0.93;;
56255;SDS011;57229;51.432;-2.598;2022-08-04T12:13:52;5.38;;;0.98;;
56255;SDS011;57229;51.432;-2.598;2022-08-04T12:22:07;3.20;;;0.80;;
56255;SDS011;57229;51.432;-2.598;2022-08-04T12:24:38;1.50;;;0.60;;
56255;SDS011;57229;51.432;-2.598;2022-08-04T12:27:17;3.42;;;0.70;;
56255;SDS011;57229;51.432;-2.598;2022-08-04T12:29:47;3.30;;;0.90;;
56255;SDS011;57229;51.432;-2.598;2022-08-04T12:32:17;3.03;;;0.80;;
56255;SDS011;57229;51.432;-2.598;2022-08-04T12:35:02;4.80;;;1.13;;
56255;SDS011;57229;51.432;-2.598;2022-08-04T12:37:39;2.00;;;0.65;;
56255;SDS011;57229;51.432;-2.598;2022-08-04T12:40:57;1.08;;;0.60;;
56255;SDS011;57229;51.432;-2.598;2022-08-04T12:43:09;5.18;;;0.80;;
56255;SDS011;57229;51.432;-2.598;2022-08-04T12:45:49;3.70;;;0.75;;
56255;SDS011;57229;51.432;-2.598;2022-08-04T12:48:20;3.10;;;0.63;;
56255;SDS011;57229;51.432;-2.598;2022-08-04T12:50:48;1.90;;;0.70;;
56255;SDS011;57229;51.432;-2.598;2022-08-04T12:53:18;2.80;;;0.65;;
56255;SDS011;57229;51.432;-2.598;2022-08-04T12:55:48;2.05;;;0.80;;
56255;SDS011;57229;51.432;-2.598;2022-08-04T12:58:23;5.13;;;0.80;;
56255;SDS011;57229;51.432;-2.598;2022-08-04T13:00:59;1.45;;;0.65;;
56255;SDS011;57229;51.432;-2.598;2022-08-04T13:04:11;3.28;;;0.70;;
56255;SDS011;57229;51.432;-2.598;2022-08-04T13:07:08;1.13;;;0.65;;
56255;SDS011;57229;51.432;-2.598;2022-08-04T13:09:39;3.67;;;0.60;;
56255;SDS011;57229;51.432;-2.598;2022-08-04T13:12:14;3.05;;;0.80;;
56255;SDS011;57229;51.432;-2.598;2022-08-04T13:14:44;1.67;;;0.60;;
56255;SDS011;57229;51.432;-2.598;2022-08-04T13:17:14;0.90;;;0.50;;
56255;SDS011;57229;51.432;-2.598;2022-08-04T13:19:45;1.45;;;0.50;;
56255;SDS011;57229;51.432;-2.598;2022-08-04T13:22:12;6.10;;;0.70;;
56255;SDS011;57229;51.432;-2.598;2022-08-04T13:24:40;5.32;;;0.85;;
56255;SDS011;57229;51.432;-2.598;2022-08-04T13:27:08;3.60;;;0.90;;
56255;SDS011;57229;51.432;-2.598;2022-08-04T13:29:40;2.20;;;0.90;;
56255;SDS011;57229;51.432;-2.598;2022-08-04T13:32:08;2.53;;;0.70;;
56255;SDS011;57229;51.432;-2.598;2022-08-04T13:34:35;4.90;;;1.15;;
56255;SDS011;57229;51.432;-2.598;2022-08-04T13:37:05;2.08;;;0.85;;
56255;SDS011;57229;51.432;-2.598;2022-08-04T13:39:31;2.50;;;0.88;;
56255;SDS011;57229;51.432;-2.598;2022-08-04T13:42:01;1.63;;;0.60;;
56255;SDS011;57229;51.432;-2.598;2022-08-04T13:44:33;2.30;;;0.77;;
56255;SDS011;57229;51.432;-2.598;2022-08-04T13:47:04;2.20;;;0.80;;
56255;SDS011;57229;51.432;-2.598;2022-08-04T13:49:36;3.88;;;0.75;;
56255;SDS011;57229;51.432;-2.598;2022-08-04T13:52:03;3.45;;;0.60;;
56255;SDS011;57229;51.432;-2.598;2022-08-04T13:54:43;2.67;;;0.90;;
56255;SDS011;57229;51.432;-2.598;2022-08-04T13:57:26;3.03;;;0.60;;
56255;SDS011;57229;51.432;-2.598;2022-08-04T13:59:59;0.77;;;0.52;;
56255;SDS011;57229;51.432;-2.598;2022-08-04T14:02:38;2.92;;;0.70;;
56255;SDS011;57229;51.432;-2.598;2022-08-04T14:05:14;2.45;;;0.60;;
56255;SDS011;57229;51.432;-2.598;2022-08-04T14:08:42;1.48;;;0.70;;
56255;SDS011;57229;51.432;-2.598;2022-08-04T14:10:56;2.08;;;0.55;;
56255;SDS011;57229;51.432;-2.598;2022-08-04T14:13:29;2.47;;;0.85;;
56255;SDS011;57229;51.432;-2.598;2022-08-04T14:15:57;0.82;;;0.55;;
56255;SDS011;57229;51.432;-2.598;2022-08-04T14:18:29;1.95;;;0.90;;
56255;SDS011;57229;51.432;-2.598;2022-08-04T14:23:52;3.40;;;0.82;;
56255;SDS011;57229;51.432;-2.598;2022-08-04T14:28:51;3.80;;;0.70;;
56255;SDS011;57229;51.432;-2.598;2022-08-04T14:31:21;1.10;;;0.60;;
56255;SDS011;57229;51.432;-2.598;2022-08-04T14:33:49;1.52;;;0.65;;
56255;SDS011;57229;51.432;-2.598;2022-08-04T14:36:16;1.40;;;0.70;;
56255;SDS011;57229;51.432;-2.598;2022-08-04T14:41:16;2.17;;;0.63;;
56255;SDS011;57229;51.432;-2.598;2022-08-04T14:43:55;3.03;;;0.70;;
56255;SDS011;57229;51.432;-2.598;2022-08-04T14:46:23;1.67;;;0.70;;
56255;SDS011;57229;51.432;-2.598;2022-08-04T14:51:35;0.98;;;0.50;;
56255;SDS011;57229;51.432;-2.598;2022-08-04T14:54:02;1.98;;;0.80;;
56255;SDS011;57229;51.432;-2.598;2022-08-04T14:56:29;0.70;;;0.40;;
56255;SDS011;57229;51.432;-2.598;2022-08-04T14:58:57;1.45;;;0.68;;
56255;SDS011;57229;51.432;-2.598;2022-08-04T15:01:26;1.08;;;0.70;;
56255;SDS011;57229;51.432;-2.598;2022-08-04T15:03:53;1.17;;;0.57;;
56255;SDS011;57229;51.432;-2.598;2022-08-04T15:06:21;2.47;;;0.60;;
56255;SDS011;57229;51.432;-2.598;2022-08-04T15:08:51;1.63;;;0.50;;
56255;SDS011;57229;51.432;-2.598;2022-08-04T15:11:19;1.45;;;0.60;;
56255;SDS011;57229;51.432;-2.598;2022-08-04T15:13:46;2.90;;;0.70;;
56255;SDS011;57229;51.432;-2.598;2022-08-04T15:16:12;1.10;;;0.60;;
56255;SDS011;57229;51.432;-2.598;2022-08-04T15:18:39;1.85;;;0.95;;
56255;SDS011;57229;51.432;-2.598;2022-08-04T15:21:06;1.65;;;0.68;;
56255;SDS011;57229;51.432;-2.598;2022-08-04T15:23:32;1.45;;;0.80;;
56255;SDS011;57229;51.432;-2.598;2022-08-04T15:25:59;1.95;;;0.52;;
56255;SDS011;57229;51.432;-2.598;2022-08-04T15:28:27;2.00;;;0.70;;
56255;SDS011;57229;51.432;-2.598;2022-08-04T15:30:54;0.93;;;0.52;;
56255;SDS011;57229;51.432;-2.598;2022-08-04T15:33:21;1.05;;;0.60;;
56255;SDS011;57229;51.432;-2.598;2022-08-04T15:35:54;1.58;;;0.60;;
56255;SDS011;57229;51.432;-2.598;2022-08-04T15:38:41;1.75;;;0.70;;
56255;SDS011;57229;51.432;-2.598;2022-08-04T15:41:43;2.00;;;0.52;;
56255;SDS011;57229;51.432;-2.598;2022-08-04T15:49:27;2.28;;;1.00;;
56255;SDS011;57229;51.432;-2.598;2022-08-04T15:52:00;1.70;;;0.52;;
56255;SDS011;57229;51.432;-2.598;2022-08-04T15:54:27;1.73;;;0.50;;
56255;SDS011;57229;51.432;-2.598;2022-08-04T15:56:53;2.42;;;0.40;;
56255;SDS011;57229;51.432;-2.598;2022-08-04T16:02:40;1.17;;;0.50;;
56255;SDS011;57229;51.432;-2.598;2022-08-04T16:07:55;1.23;;;0.35;;
56255;SDS011;57229;51.432;-2.598;2022-08-04T16:12:54;2.55;;;0.55;;
56255;SDS011;57229;51.432;-2.598;2022-08-04T16:15:41;2.20;;;0.90;;
56255;SDS011;57229;51.432;-2.598;2022-08-04T16:18:08;2.40;;;0.85;;
56255;SDS011;57229;51.432;-2.598;2022-08-04T16:20:35;1.98;;;0.70;;
56255;SDS011;57229;51.432;-2.598;2022-08-04T16:23:15;4.05;;;0.52;;
56255;SDS011;57229;51.432;-2.598;2022-08-04T16:25:59;3.60;;;0.60;;
56255;SDS011;57229;51.432;-2.598;2022-08-04T16:31:02;2.08;;;0.70;;
56255;SDS011;57229;51.432;-2.598;2022-08-04T16:33:30;1.13;;;0.70;;
56255;SDS011;57229;51.432;-2.598;2022-08-04T16:35:57;0.98;;;0.60;;
56255;SDS011;57229;51.432;-2.598;2022-08-04T16:38:24;3.50;;;0.65;;
56255;SDS011;57229;51.432;-2.598;2022-08-04T16:40:53;1.92;;;0.60;;
56255;SDS011;57229;51.432;-2.598;2022-08-04T16:43:27;1.45;;;0.45;;
56255;SDS011;57229;51.432;-2.598;2022-08-04T16:45:58;0.85;;;0.50;;
56255;SDS011;57229;51.432;-2.598;2022-08-04T16:48:26;1.90;;;0.80;;
56255;SDS011;57229;51.432;-2.598;2022-08-04T16:50:58;2.25;;;0.65;;
56255;SDS011;57229;51.432;-2.598;2022-08-04T16:53:25;2.47;;;0.57;;
56255;SDS011;57229;51.432;-2.598;2022-08-04T16:55:53;2.20;;;0.40;;
56255;SDS011;57229;51.432;-2.598;2022-08-04T16:58:24;1.77;;;0.60;;
56255;SDS011;57229;51.432;-2.598;2022-08-04T17:00:52;0.63;;;0.50;;
56255;SDS011;57229;51.432;-2.598;2022-08-04T17:03:18;1.35;;;0.60;;
56255;SDS011;57229;51.432;-2.598;2022-08-04T17:05:44;1.77;;;0.50;;
56255;SDS011;57229;51.432;-2.598;2022-08-04T17:08:10;1.23;;;0.50;;
56255;SDS011;57229;51.432;-2.598;2022-08-04T17:10:43;0.60;;;0.35;;
56255;SDS011;57229;51.432;-2.598;2022-08-04T17:13:26;1.40;;;0.55;;
56255;SDS011;57229;51.432;-2.598;2022-08-04T17:15:58;1.52;;;0.45;;
56255;SDS011;57229;51.432;-2.598;2022-08-04T17:18:30;1.20;;;0.47;;
56255;SDS011;57229;51.432;-2.598;2022-08-04T17:21:08;2.47;;;0.60;;
56255;SDS011;57229;51.432;-2.598;2022-08-04T17:23:41;1.85;;;0.68;;
56255;SDS011;57229;51.432;-2.598;2022-08-04T17:26:15;2.13;;;0.50;;
56255;SDS011;57229;51.432;-2.598;2022-08-04T17:28:45;1.30;;;0.52;;
56255;SDS011;57229;51.432;-2.598;2022-08-04T17:31:13;1.50;;;0.50;;
56255;SDS011;57229;51.432;-2.598;2022-08-04T17:33:43;1.83;;;0.60;;
56255;SDS011;57229;51.432;-2.598;2022-08-04T17:36:11;1.20;;;0.50;;
56255;SDS011;57229;51.432;-2.598;2022-08-04T17:41:11;3.08;;;0.90;;
56255;SDS011;57229;51.432;-2.598;2022-08-04T17:43:46;1.58;;;0.60;;
56255;SDS011;57229;51.432;-2.598;2022-08-04T17:46:14;1.25;;;0.65;;
56255;SDS011;57229;51.432;-2.598;2022-08-04T17:54:02;1.67;;;0.63;;
56255;SDS011;57229;51.432;-2.598;2022-08-04T17:56:30;1.35;;;0.88;;
56255;SDS011;57229;51.432;-2.598;2022-08-04T17:59:25;1.63;;;0.95;;
56255;SDS011;57229;51.432;-2.598;2022-08-04T18:01:59;1.77;;;0.90;;
56255;SDS011;57229;51.432;-2.598;2022-08-04T18:07:09;2.03;;;0.80;;
56255;SDS011;57229;51.432;-2.598;2022-08-04T18:12:12;3.90;;;1.10;;
56255;SDS011;57229;51.432;-2.598;2022-08-04T18:15:00;4.75;;;0.95;;
56255;SDS011;57229;51.432;-2.598;2022-08-04T18:17:36;2.65;;;1.15;;
56255;SDS011;57229;51.432;-2.598;2022-08-04T18:20:14;3.33;;;0.75;;
56255;SDS011;57229;51.432;-2.598;2022-08-04T18:22:43;1.75;;;0.77;;
56255;SDS011;57229;51.432;-2.598;2022-08-04T18:25:11;1.30;;;0.75;;
56255;SDS011;57229;51.432;-2.598;2022-08-04T18:27:51;1.10;;;0.75;;
56255;SDS011;57229;51.432;-2.598;2022-08-04T18:30:18;1.98;;;0.65;;
56255;SDS011;57229;51.432;-2.598;2022-08-04T18:32:45;2.50;;;1.00;;
56255;SDS011;57229;51.432;-2.598;2022-08-04T18:35:11;4.65;;;1.15;;
56255;SDS011;57229;51.432;-2.598;2022-08-04T18:37:38;4.90;;;1.15;;
56255;SDS011;57229;51.432;-2.598;2022-08-04T18:40:05;2.33;;;1.08;;
56255;SDS011;57229;51.432;-2.598;2022-08-04T18:42:32;3.10;;;0.90;;
56255;SDS011;57229;51.432;-2.598;2022-08-04T18:44:59;1.58;;;1.00;;
56255;SDS011;57229;51.432;-2.598;2022-08-04T18:47:25;3.58;;;0.90;;
56255;SDS011;57229;51.432;-2.598;2022-08-04T18:49:51;3.30;;;0.85;;
56255;SDS011;57229;51.432;-2.598;2022-08-04T18:52:21;3.28;;;1.05;;
56255;SDS011;57229;51.432;-2.598;2022-08-04T18:54:47;3.40;;;1.00;;
56255;SDS011;57229;51.432;-2.598;2022-08-04T18:57:19;2.17;;;1.00;;
56255;SDS011;57229;51.432;-2.598;2022-08-04T18:59:47;1.33;;;0.70;;
56255;SDS011;57229;51.432;-2.598;2022-08-04T19:02:13;4.88;;;0.75;;
56255;SDS011;57229;51.432;-2.598;2022-08-04T19:04:40;2.35;;;0.80;;
56255;SDS011;57229;51.432;-2.598;2022-08-04T19:07:06;6.25;;;0.75;;
56255;SDS011;57229;51.432;-2.598;2022-08-04T19:09:32;3.47;;;0.80;;
56255;SDS011;57229;51.432;-2.598;2022-08-04T19:11:58;4.20;;;1.00;;
56255;SDS011;57229;51.432;-2.598;2022-08-04T19:14:24;4.00;;;1.25;;
56255;SDS011;57229;51.432;-2.598;2022-08-04T19:16:50;3.58;;;1.30;;
56255;SDS011;57229;51.432;-2.598;2022-08-04T19:19:16;2.95;;;0.90;;
56255;SDS011;57229;51.432;-2.598;2022-08-04T19:21:45;5.03;;;1.25;;
56255;SDS011;57229;51.432;-2.598;2022-08-04T19:24:11;2.72;;;1.00;;
56255;SDS011;57229;51.432;-2.598;2022-08-04T19:26:39;3.50;;;1.10;;
56255;SDS011;57229;51.432;-2.598;2022-08-04T19:29:26;6.05;;;1.00;;